sensor_id;sensor_type;location;lat;lon;timestamp;P1;durP1;ratioP1;P2;durP2;ratioP2
45762;SDS011;37512;52.408;13.356;2023-11-21T00:01:36;6.25;;;3.00;;
45762;SDS011;37512;52.408;13.356;2023-11-21T00:05:38;4.15;;;3.05;;
45762;SDS011;37512;52.408;13.356;2023-11-21T00:09:42;10.30;;;3.80;;
45762;SDS011;37512;52.408;13.356;2023-11-21T00:13:44;4.35;;;3.42;;
45762;SDS011;37512;52.408;13.356;2023-11-21T00:17:51;4.32;;;3.05;;
45762;SDS011;37512;52.408;13.356;2023-11-21T00:21:53;7.72;;;3.30;;
45762;SDS011;37512;52.408;13.356;2023-11-21T00:25:55;4.15;;;2.72;;
45762;SDS011;37512;52.408;13.356;2023-11-21T00:29:58;8.93;;;5.43;;
45762;SDS011;37512;52.408;13.356;2023-11-21T00:33:59;13.02;;;8.20;;
45762;SDS011;37512;52.408;13.356;2023-11-21T00:38:01;12.45;;;7.93;;
45762;SDS011;37512;52.408;13.356;2023-11-21T00:42:04;11.02;;;7.78;;
45762;SDS011;37512;52.408;13.356;2023-11-21T00:46:08;14.77;;;9.15;;
45762;SDS011;37512;52.408;13.356;2023-11-21T00:50:10;14.65;;;9.90;;
45762;SDS011;37512;52.408;13.356;2023-11-21T00:54:12;17.88;;;10.82;;
45762;SDS011;37512;52.408;13.356;2023-11-21T00:58:14;19.30;;;11.07;;
45762;SDS011;37512;52.408;13.356;2023-11-21T01:02:16;23.40;;;13.00;;
45762;SDS011;37512;52.408;13.356;2023-11-21T01:06:25;23.47;;;14.43;;
45762;SDS011;37512;52.408;13.356;2023-11-21T01:10:27;35.67;;;16.60;;
45762;SDS011;37512;52.408;13.356;2023-11-21T01:14:28;35.03;;;17.88;;
45762;SDS011;37512;52.408;13.356;2023-11-21T01:18:30;34.20;;;18.92;;
45762;SDS011;37512;52.408;13.356;2023-11-21T01:22:32;40.47;;;18.63;;
45762;SDS011;37512;52.408;13.356;2023-11-21T01:26:35;46.22;;;20.48;;
45762;SDS011;37512;52.408;13.356;2023-11-21T01:30:37;39.42;;;19.40;;
45762;SDS011;37512;52.408;13.356;2023-11-21T01:34:43;48.58;;;20.92;;
45762;SDS011;37512;52.408;13.356;2023-11-21T01:38:48;38.00;;;18.52;;
45762;SDS011;37512;52.408;13.356;2023-11-21T01:42:53;40.83;;;19.23;;
45762;SDS011;37512;52.408;13.356;2023-11-21T01:46:59;40.75;;;17.60;;
45762;SDS011;37512;52.408;13.356;2023-11-21T01:51:03;43.28;;;20.40;;
45762;SDS011;37512;52.408;13.356;2023-11-21T01:55:06;52.10;;;21.83;;
45762;SDS011;37512;52.408;13.356;2023-11-21T01:59:11;55.90;;;20.00;;
45762;SDS011;37512;52.408;13.356;2023-11-21T02:03:17;63.47;;;24.70;;
45762;SDS011;37512;52.408;13.356;2023-11-21T02:07:23;61.20;;;25.10;;
45762;SDS011;37512;52.408;13.356;2023-11-21T02:11:25;76.30;;;24.33;;
45762;SDS011;37512;52.408;13.356;2023-11-21T02:15:29;74.00;;;25.88;;
45762;SDS011;37512;52.408;13.356;2023-11-21T02:19:31;68.32;;;25.20;;
45762;SDS011;37512;52.408;13.356;2023-11-21T02:23:34;71.07;;;24.70;;
45762;SDS011;37512;52.408;13.356;2023-11-21T02:27:43;67.38;;;22.95;;
45762;SDS011;37512;52.408;13.356;2023-11-21T02:31:52;46.38;;;17.17;;
45762;SDS011;37512;52.408;13.356;2023-11-21T02:36:07;49.80;;;17.95;;
45762;SDS011;37512;52.408;13.356;2023-11-21T02:40:10;54.25;;;19.08;;
45762;SDS011;37512;52.408;13.356;2023-11-21T02:44:19;46.30;;;16.73;;
45762;SDS011;37512;52.408;13.356;2023-11-21T02:48:22;40.20;;;15.98;;
45762;SDS011;37512;52.408;13.356;2023-11-21T02:52:27;48.47;;;15.93;;
45762;SDS011;37512;52.408;13.356;2023-11-21T02:56:29;44.35;;;15.98;;
45762;SDS011;37512;52.408;13.356;2023-11-21T03:00:31;32.83;;;15.40;;
45762;SDS011;37512;52.408;13.356;2023-11-21T03:04:35;43.72;;;14.80;;
45762;SDS011;37512;52.408;13.356;2023-11-21T03:08:36;38.55;;;14.95;;
45762;SDS011;37512;52.408;13.356;2023-11-21T03:12:41;35.45;;;14.55;;
45762;SDS011;37512;52.408;13.356;2023-11-21T03:16:43;42.10;;;15.77;;
45762;SDS011;37512;52.408;13.356;2023-11-21T03:20:59;41.25;;;16.05;;
45762;SDS011;37512;52.408;13.356;2023-11-21T03:25:01;37.45;;;15.07;;
45762;SDS011;37512;52.408;13.356;2023-11-21T03:29:06;33.40;;;12.57;;
45762;SDS011;37512;52.408;13.356;2023-11-21T03:33:08;31.30;;;14.02;;
45762;SDS011;37512;52.408;13.356;2023-11-21T03:37:09;31.45;;;14.27;;
45762;SDS011;37512;52.408;13.356;2023-11-21T03:41:11;25.00;;;14.00;;
45762;SDS011;37512;52.408;13.356;2023-11-21T03:45:21;25.42;;;15.02;;
45762;SDS011;37512;52.408;13.356;2023-11-21T03:49:25;31.55;;;14.55;;
45762;SDS011;37512;52.408;13.356;2023-11-21T03:53:27;25.45;;;14.27;;
45762;SDS011;37512;52.408;13.356;2023-11-21T03:57:35;27.40;;;14.00;;
45762;SDS011;37512;52.408;13.356;2023-11-21T04:01:40;23.10;;;13.70;;
45762;SDS011;37512;52.408;13.356;2023-11-21T04:05:42;26.63;;;13.10;;
45762;SDS011;37512;52.408;13.356;2023-11-21T04:09:43;19.48;;;12.15;;
45762;SDS011;37512;52.408;13.356;2023-11-21T04:13:45;15.70;;;10.23;;
45762;SDS011;37512;52.408;13.356;2023-11-21T04:17:48;18.88;;;11.18;;
45762;SDS011;37512;52.408;13.356;2023-11-21T04:21:51;18.15;;;11.82;;
45762;SDS011;37512;52.408;13.356;2023-11-21T04:25:54;20.23;;;12.45;;
45762;SDS011;37512;52.408;13.356;2023-11-21T04:30:00;20.30;;;12.23;;
45762;SDS011;37512;52.408;13.356;2023-11-21T04:34:02;21.95;;;12.40;;
45762;SDS011;37512;52.408;13.356;2023-11-21T04:38:05;19.13;;;12.15;;
45762;SDS011;37512;52.408;13.356;2023-11-21T04:42:07;18.45;;;11.05;;
45762;SDS011;37512;52.408;13.356;2023-11-21T04:46:09;15.73;;;9.73;;
45762;SDS011;37512;52.408;13.356;2023-11-21T04:50:10;15.57;;;10.27;;
45762;SDS011;37512;52.408;13.356;2023-11-21T04:54:12;15.73;;;9.88;;
45762;SDS011;37512;52.408;13.356;2023-11-21T04:58:36;16.85;;;9.73;;
45762;SDS011;37512;52.408;13.356;2023-11-21T05:02:40;18.60;;;9.70;;
45762;SDS011;37512;52.408;13.356;2023-11-21T05:06:43;18.80;;;11.27;;
45762;SDS011;37512;52.408;13.356;2023-11-21T05:10:49;16.67;;;10.45;;
45762;SDS011;37512;52.408;13.356;2023-11-21T05:14:53;16.00;;;10.05;;
45762;SDS011;37512;52.408;13.356;2023-11-21T05:19:03;14.80;;;9.30;;
45762;SDS011;37512;52.408;13.356;2023-11-21T05:23:10;15.20;;;9.27;;
45762;SDS011;37512;52.408;13.356;2023-11-21T05:27:12;16.33;;;9.00;;
45762;SDS011;37512;52.408;13.356;2023-11-21T05:31:14;17.77;;;10.82;;
45762;SDS011;37512;52.408;13.356;2023-11-21T05:35:34;11.57;;;7.15;;
45762;SDS011;37512;52.408;13.356;2023-11-21T05:39:53;16.05;;;9.32;;
45762;SDS011;37512;52.408;13.356;2023-11-21T05:43:57;19.42;;;9.50;;
45762;SDS011;37512;52.408;13.356;2023-11-21T05:48:11;14.05;;;8.90;;
45762;SDS011;37512;52.408;13.356;2023-11-21T05:52:13;16.88;;;8.63;;
45762;SDS011;37512;52.408;13.356;2023-11-21T05:56:15;13.48;;;9.35;;
45762;SDS011;37512;52.408;13.356;2023-11-21T06:00:18;15.13;;;9.40;;
45762;SDS011;37512;52.408;13.356;2023-11-21T06:04:23;16.42;;;9.70;;
45762;SDS011;37512;52.408;13.356;2023-11-21T06:08:26;20.52;;;11.60;;
45762;SDS011;37512;52.408;13.356;2023-11-21T06:12:27;14.02;;;9.30;;
45762;SDS011;37512;52.408;13.356;2023-11-21T06:16:44;13.57;;;8.88;;
45762;SDS011;37512;52.408;13.356;2023-11-21T06:20:46;13.25;;;8.35;;
45762;SDS011;37512;52.408;13.356;2023-11-21T06:24:49;15.18;;;8.80;;
45762;SDS011;37512;52.408;13.356;2023-11-21T06:28:50;11.82;;;7.38;;
45762;SDS011;37512;52.408;13.356;2023-11-21T06:32:52;13.27;;;8.30;;
45762;SDS011;37512;52.408;13.356;2023-11-21T06:36:58;14.38;;;7.97;;
45762;SDS011;37512;52.408;13.356;2023-11-21T06:41:01;13.05;;;7.25;;
45762;SDS011;37512;52.408;13.356;2023-11-21T06:45:05;11.10;;;6.85;;
45762;SDS011;37512;52.408;13.356;2023-11-21T06:49:08;10.35;;;5.97;;
45762;SDS011;37512;52.408;13.356;2023-11-21T06:53:10;11.57;;;6.65;;
45762;SDS011;37512;52.408;13.356;2023-11-21T06:57:12;10.93;;;6.85;;
45762;SDS011;37512;52.408;13.356;2023-11-21T07:01:14;9.80;;;5.45;;
45762;SDS011;37512;52.408;13.356;2023-11-21T07:05:30;10.30;;;5.50;;
45762;SDS011;37512;52.408;13.356;2023-11-21T07:09:38;9.35;;;5.95;;
45762;SDS011;37512;52.408;13.356;2023-11-21T07:13:40;8.13;;;5.97;;
45762;SDS011;37512;52.408;13.356;2023-11-21T07:17:42;10.27;;;5.28;;
45762;SDS011;37512;52.408;13.356;2023-11-21T07:21:45;9.30;;;5.88;;
45762;SDS011;37512;52.408;13.356;2023-11-21T07:25:47;16.63;;;7.68;;
45762;SDS011;37512;52.408;13.356;2023-11-21T07:29:49;13.77;;;7.90;;
45762;SDS011;37512;52.408;13.356;2023-11-21T07:34:04;11.40;;;6.90;;
45762;SDS011;37512;52.408;13.356;2023-11-21T07:38:06;8.77;;;5.80;;
45762;SDS011;37512;52.408;13.356;2023-11-21T07:42:08;6.60;;;4.88;;
45762;SDS011;37512;52.408;13.356;2023-11-21T07:46:13;10.23;;;5.75;;
45762;SDS011;37512;52.408;13.356;2023-11-21T07:50:17;8.30;;;5.45;;
45762;SDS011;37512;52.408;13.356;2023-11-21T07:54:19;8.32;;;5.07;;
45762;SDS011;37512;52.408;13.356;2023-11-21T07:58:27;9.25;;;6.50;;
45762;SDS011;37512;52.408;13.356;2023-11-21T08:02:30;9.80;;;6.80;;
45762;SDS011;37512;52.408;13.356;2023-11-21T08:06:32;10.80;;;5.80;;
45762;SDS011;37512;52.408;13.356;2023-11-21T08:10:35;9.93;;;6.00;;
45762;SDS011;37512;52.408;13.356;2023-11-21T08:14:38;8.82;;;4.97;;
45762;SDS011;37512;52.408;13.356;2023-11-21T08:18:41;8.27;;;5.28;;
45762;SDS011;37512;52.408;13.356;2023-11-21T08:22:44;8.27;;;5.45;;
45762;SDS011;37512;52.408;13.356;2023-11-21T08:26:46;6.55;;;4.95;;
45762;SDS011;37512;52.408;13.356;2023-11-21T08:30:48;6.97;;;4.55;;
45762;SDS011;37512;52.408;13.356;2023-11-21T08:34:50;6.97;;;4.80;;
45762;SDS011;37512;52.408;13.356;2023-11-21T08:38:53;8.35;;;4.47;;
45762;SDS011;37512;52.408;13.356;2023-11-21T08:43:12;11.90;;;5.40;;
45762;SDS011;37512;52.408;13.356;2023-11-21T08:47:15;15.68;;;6.68;;
45762;SDS011;37512;52.408;13.356;2023-11-21T08:51:19;13.00;;;5.88;;
45762;SDS011;37512;52.408;13.356;2023-11-21T08:55:22;10.52;;;6.50;;
45762;SDS011;37512;52.408;13.356;2023-11-21T08:59:24;11.60;;;6.00;;
45762;SDS011;37512;52.408;13.356;2023-11-21T09:03:27;11.40;;;6.00;;
45762;SDS011;37512;52.408;13.356;2023-11-21T09:07:30;9.93;;;4.97;;
45762;SDS011;37512;52.408;13.356;2023-11-21T09:11:32;10.77;;;6.10;;
45762;SDS011;37512;52.408;13.356;2023-11-21T09:15:38;12.70;;;7.00;;
45762;SDS011;37512;52.408;13.356;2023-11-21T09:19:41;14.10;;;6.28;;
45762;SDS011;37512;52.408;13.356;2023-11-21T09:23:46;14.85;;;6.45;;
45762;SDS011;37512;52.408;13.356;2023-11-21T09:27:49;18.17;;;7.93;;
45762;SDS011;37512;52.408;13.356;2023-11-21T09:31:51;21.35;;;10.32;;
45762;SDS011;37512;52.408;13.356;2023-11-21T09:35:56;15.65;;;8.30;;
45762;SDS011;37512;52.408;13.356;2023-11-21T09:39:58;18.13;;;6.65;;
45762;SDS011;37512;52.408;13.356;2023-11-21T09:44:00;14.43;;;6.18;;
45762;SDS011;37512;52.408;13.356;2023-11-21T09:48:06;18.13;;;6.13;;
45762;SDS011;37512;52.408;13.356;2023-11-21T09:52:10;10.00;;;5.10;;
45762;SDS011;37512;52.408;13.356;2023-11-21T09:56:28;11.48;;;5.50;;
45762;SDS011;37512;52.408;13.356;2023-11-21T10:00:32;15.88;;;6.45;;
45762;SDS011;37512;52.408;13.356;2023-11-21T10:04:34;18.73;;;7.15;;
45762;SDS011;37512;52.408;13.356;2023-11-21T10:08:36;14.73;;;6.22;;
45762;SDS011;37512;52.408;13.356;2023-11-21T10:12:55;11.38;;;5.00;;
45762;SDS011;37512;52.408;13.356;2023-11-21T10:16:57;9.98;;;4.75;;
45762;SDS011;37512;52.408;13.356;2023-11-21T10:20:59;66.35;;;37.65;;
45762;SDS011;37512;52.408;13.356;2023-11-21T10:25:04;8.20;;;3.38;;
45762;SDS011;37512;52.408;13.356;2023-11-21T10:29:32;5.88;;;3.38;;
45762;SDS011;37512;52.408;13.356;2023-11-21T10:33:38;6.60;;;3.03;;
45762;SDS011;37512;52.408;13.356;2023-11-21T10:37:40;6.45;;;3.90;;
45762;SDS011;37512;52.408;13.356;2023-11-21T10:41:43;5.90;;;3.58;;
45762;SDS011;37512;52.408;13.356;2023-11-21T10:45:50;5.05;;;3.25;;
45762;SDS011;37512;52.408;13.356;2023-11-21T10:49:53;9.65;;;3.58;;
45762;SDS011;37512;52.408;13.356;2023-11-21T10:53:55;7.53;;;3.42;;
45762;SDS011;37512;52.408;13.356;2023-11-21T10:57:58;9.05;;;3.47;;
45762;SDS011;37512;52.408;13.356;2023-11-21T11:02:06;7.55;;;3.38;;
45762;SDS011;37512;52.408;13.356;2023-11-21T11:06:24;6.50;;;3.97;;
45762;SDS011;37512;52.408;13.356;2023-11-21T11:10:28;7.07;;;3.85;;
45762;SDS011;37512;52.408;13.356;2023-11-21T11:14:33;6.55;;;3.40;;
45762;SDS011;37512;52.408;13.356;2023-11-21T11:18:35;4.75;;;3.08;;
45762;SDS011;37512;52.408;13.356;2023-11-21T11:22:37;4.90;;;3.42;;
45762;SDS011;37512;52.408;13.356;2023-11-21T11:26:56;5.60;;;3.70;;
45762;SDS011;37512;52.408;13.356;2023-11-21T11:35:31;4.72;;;3.13;;
45762;SDS011;37512;52.408;13.356;2023-11-21T11:39:42;7.32;;;3.97;;
45762;SDS011;37512;52.408;13.356;2023-11-21T11:43:50;5.20;;;3.50;;
45762;SDS011;37512;52.408;13.356;2023-11-21T11:47:56;4.13;;;3.42;;
45762;SDS011;37512;52.408;13.356;2023-11-21T11:56:34;7.03;;;3.60;;
45762;SDS011;37512;52.408;13.356;2023-11-21T12:00:37;5.10;;;3.25;;
45762;SDS011;37512;52.408;13.356;2023-11-21T12:04:43;6.00;;;3.65;;
45762;SDS011;37512;52.408;13.356;2023-11-21T12:08:46;5.57;;;3.88;;
45762;SDS011;37512;52.408;13.356;2023-11-21T12:12:48;5.32;;;3.72;;
45762;SDS011;37512;52.408;13.356;2023-11-21T12:16:51;5.18;;;3.47;;
45762;SDS011;37512;52.408;13.356;2023-11-21T12:20:53;4.40;;;2.90;;
45762;SDS011;37512;52.408;13.356;2023-11-21T12:24:55;6.25;;;3.65;;
45762;SDS011;37512;52.408;13.356;2023-11-21T12:28:59;5.90;;;3.80;;
45762;SDS011;37512;52.408;13.356;2023-11-21T12:33:01;5.38;;;3.65;;
45762;SDS011;37512;52.408;13.356;2023-11-21T12:37:04;7.05;;;3.88;;
45762;SDS011;37512;52.408;13.356;2023-11-21T12:41:06;4.75;;;3.55;;
45762;SDS011;37512;52.408;13.356;2023-11-21T12:45:19;5.88;;;3.97;;
45762;SDS011;37512;52.408;13.356;2023-11-21T12:49:27;5.75;;;3.90;;
45762;SDS011;37512;52.408;13.356;2023-11-21T12:53:30;6.63;;;4.03;;
45762;SDS011;37512;52.408;13.356;2023-11-21T12:57:40;4.90;;;4.35;;
45762;SDS011;37512;52.408;13.356;2023-11-21T13:01:45;38.42;;;21.35;;
45762;SDS011;37512;52.408;13.356;2023-11-21T13:06:02;7.90;;;4.43;;
45762;SDS011;37512;52.408;13.356;2023-11-21T13:10:04;4.78;;;3.10;;
45762;SDS011;37512;52.408;13.356;2023-11-21T13:14:17;4.60;;;2.95;;
45762;SDS011;37512;52.408;13.356;2023-11-21T13:18:20;6.60;;;3.38;;
45762;SDS011;37512;52.408;13.356;2023-11-21T13:22:23;4.40;;;3.15;;
45762;SDS011;37512;52.408;13.356;2023-11-21T13:26:30;5.35;;;3.13;;
45762;SDS011;37512;52.408;13.356;2023-11-21T13:30:34;4.50;;;3.22;;
45762;SDS011;37512;52.408;13.356;2023-11-21T13:34:36;6.82;;;3.42;;
45762;SDS011;37512;52.408;13.356;2023-11-21T13:38:38;5.13;;;3.60;;
45762;SDS011;37512;52.408;13.356;2023-11-21T13:42:44;7.35;;;3.97;;
45762;SDS011;37512;52.408;13.356;2023-11-21T13:46:46;5.57;;;3.78;;
45762;SDS011;37512;52.408;13.356;2023-11-21T13:50:50;6.55;;;4.03;;
45762;SDS011;37512;52.408;13.356;2023-11-21T13:55:03;7.15;;;4.57;;
45762;SDS011;37512;52.408;13.356;2023-11-21T13:59:08;8.68;;;4.57;;
45762;SDS011;37512;52.408;13.356;2023-11-21T14:03:35;11.07;;;5.50;;
45762;SDS011;37512;52.408;13.356;2023-11-21T14:07:52;13.75;;;6.38;;
45762;SDS011;37512;52.408;13.356;2023-11-21T14:11:57;12.35;;;6.55;;
45762;SDS011;37512;52.408;13.356;2023-11-21T14:16:04;12.43;;;7.30;;
45762;SDS011;37512;52.408;13.356;2023-11-21T14:20:08;10.20;;;6.70;;
45762;SDS011;37512;52.408;13.356;2023-11-21T14:24:19;14.48;;;5.97;;
45762;SDS011;37512;52.408;13.356;2023-11-21T14:28:22;7.18;;;5.05;;
45762;SDS011;37512;52.408;13.356;2023-11-21T14:32:24;11.50;;;6.82;;
45762;SDS011;37512;52.408;13.356;2023-11-21T14:36:28;12.60;;;6.25;;
45762;SDS011;37512;52.408;13.356;2023-11-21T14:40:31;11.82;;;7.30;;
45762;SDS011;37512;52.408;13.356;2023-11-21T14:44:37;11.93;;;8.23;;
45762;SDS011;37512;52.408;13.356;2023-11-21T14:48:44;13.25;;;8.73;;
45762;SDS011;37512;52.408;13.356;2023-11-21T14:53:00;14.57;;;10.20;;
45762;SDS011;37512;52.408;13.356;2023-11-21T14:57:03;18.40;;;11.35;;
45762;SDS011;37512;52.408;13.356;2023-11-21T15:01:07;17.63;;;10.63;;
45762;SDS011;37512;52.408;13.356;2023-11-21T15:05:09;22.13;;;13.18;;
45762;SDS011;37512;52.408;13.356;2023-11-21T15:09:18;24.87;;;13.07;;
45762;SDS011;37512;52.408;13.356;2023-11-21T15:13:20;24.67;;;13.98;;
45762;SDS011;37512;52.408;13.356;2023-11-21T15:17:27;25.95;;;14.77;;
45762;SDS011;37512;52.408;13.356;2023-11-21T15:21:32;24.65;;;15.73;;
45762;SDS011;37512;52.408;13.356;2023-11-21T15:25:48;31.80;;;16.48;;
45762;SDS011;37512;52.408;13.356;2023-11-21T15:29:51;26.52;;;17.40;;
45762;SDS011;37512;52.408;13.356;2023-11-21T15:33:54;29.75;;;17.38;;
45762;SDS011;37512;52.408;13.356;2023-11-21T15:38:00;35.40;;;18.35;;
45762;SDS011;37512;52.408;13.356;2023-11-21T15:42:02;28.52;;;17.90;;
45762;SDS011;37512;52.408;13.356;2023-11-21T15:46:07;23.75;;;15.90;;
45762;SDS011;37512;52.408;13.356;2023-11-21T15:50:09;22.80;;;14.48;;
45762;SDS011;37512;52.408;13.356;2023-11-21T15:54:12;23.83;;;15.38;;
45762;SDS011;37512;52.408;13.356;2023-11-21T15:58:14;24.77;;;15.40;;
45762;SDS011;37512;52.408;13.356;2023-11-21T16:02:31;26.17;;;14.98;;
45762;SDS011;37512;52.408;13.356;2023-11-21T16:06:33;22.77;;;13.55;;
45762;SDS011;37512;52.408;13.356;2023-11-21T16:10:41;21.15;;;14.43;;
45762;SDS011;37512;52.408;13.356;2023-11-21T16:14:42;17.70;;;11.35;;
45762;SDS011;37512;52.408;13.356;2023-11-21T16:18:49;22.45;;;11.68;;
45762;SDS011;37512;52.408;13.356;2023-11-21T16:22:51;18.90;;;12.23;;
45762;SDS011;37512;52.408;13.356;2023-11-21T16:26:53;19.77;;;12.48;;
45762;SDS011;37512;52.408;13.356;2023-11-21T16:30:58;18.98;;;11.82;;
45762;SDS011;37512;52.408;13.356;2023-11-21T16:35:04;19.25;;;12.25;;
45762;SDS011;37512;52.408;13.356;2023-11-21T16:39:07;18.90;;;11.52;;
45762;SDS011;37512;52.408;13.356;2023-11-21T16:43:21;18.52;;;10.80;;
45762;SDS011;37512;52.408;13.356;2023-11-21T16:47:24;18.23;;;10.40;;
45762;SDS011;37512;52.408;13.356;2023-11-21T16:51:30;18.15;;;11.25;;
45762;SDS011;37512;52.408;13.356;2023-11-21T16:55:32;17.88;;;10.70;;
45762;SDS011;37512;52.408;13.356;2023-11-21T16:59:34;19.40;;;11.02;;
45762;SDS011;37512;52.408;13.356;2023-11-21T17:03:35;14.27;;;9.15;;
45762;SDS011;37512;52.408;13.356;2023-11-21T17:07:37;14.70;;;9.63;;
45762;SDS011;37512;52.408;13.356;2023-11-21T17:11:40;14.18;;;9.43;;
45762;SDS011;37512;52.408;13.356;2023-11-21T17:15:44;18.42;;;9.65;;
45762;SDS011;37512;52.408;13.356;2023-11-21T17:19:48;16.88;;;10.20;;
45762;SDS011;37512;52.408;13.356;2023-11-21T17:23:50;16.80;;;10.20;;
45762;SDS011;37512;52.408;13.356;2023-11-21T17:27:51;14.43;;;9.88;;
45762;SDS011;37512;52.408;13.356;2023-11-21T17:31:53;15.05;;;8.55;;
45762;SDS011;37512;52.408;13.356;2023-11-21T17:35:55;16.20;;;9.00;;
45762;SDS011;37512;52.408;13.356;2023-11-21T17:39:57;13.80;;;9.05;;
45762;SDS011;37512;52.408;13.356;2023-11-21T17:43:59;13.57;;;8.82;;
45762;SDS011;37512;52.408;13.356;2023-11-21T17:48:03;12.50;;;8.88;;
45762;SDS011;37512;52.408;13.356;2023-11-21T17:52:13;13.13;;;8.82;;
45762;SDS011;37512;52.408;13.356;2023-11-21T17:56:15;14.82;;;8.90;;
45762;SDS011;37512;52.408;13.356;2023-11-21T18:00:18;15.85;;;9.73;;
45762;SDS011;37512;52.408;13.356;2023-11-21T18:04:27;12.93;;;8.68;;
45762;SDS011;37512;52.408;13.356;2023-11-21T18:08:28;14.13;;;8.70;;
45762;SDS011;37512;52.408;13.356;2023-11-21T18:12:31;17.25;;;8.27;;
45762;SDS011;37512;52.408;13.356;2023-11-21T18:16:32;15.95;;;8.23;;
45762;SDS011;37512;52.408;13.356;2023-11-21T18:20:34;14.38;;;7.75;;
45762;SDS011;37512;52.408;13.356;2023-11-21T18:24:36;11.63;;;8.18;;
45762;SDS011;37512;52.408;13.356;2023-11-21T18:28:37;11.65;;;7.75;;
45762;SDS011;37512;52.408;13.356;2023-11-21T18:32:41;13.65;;;9.13;;
45762;SDS011;37512;52.408;13.356;2023-11-21T18:36:43;16.17;;;9.05;;
45762;SDS011;37512;52.408;13.356;2023-11-21T18:40:46;13.10;;;7.68;;
45762;SDS011;37512;52.408;13.356;2023-11-21T18:44:48;13.77;;;9.25;;
45762;SDS011;37512;52.408;13.356;2023-11-21T18:48:59;13.15;;;8.32;;
45762;SDS011;37512;52.408;13.356;2023-11-21T18:53:01;13.90;;;9.30;;
45762;SDS011;37512;52.408;13.356;2023-11-21T18:57:03;12.63;;;8.38;;
45762;SDS011;37512;52.408;13.356;2023-11-21T19:01:05;11.77;;;8.32;;
45762;SDS011;37512;52.408;13.356;2023-11-21T19:05:13;13.20;;;8.90;;
45762;SDS011;37512;52.408;13.356;2023-11-21T19:09:15;16.55;;;9.45;;
45762;SDS011;37512;52.408;13.356;2023-11-21T19:13:20;14.27;;;8.20;;
45762;SDS011;37512;52.408;13.356;2023-11-21T19:17:28;13.13;;;8.32;;
45762;SDS011;37512;52.408;13.356;2023-11-21T19:21:30;12.90;;;8.05;;
45762;SDS011;37512;52.408;13.356;2023-11-21T19:25:32;13.95;;;7.93;;
45762;SDS011;37512;52.408;13.356;2023-11-21T19:29:34;13.02;;;8.13;;
45762;SDS011;37512;52.408;13.356;2023-11-21T19:33:39;12.60;;;7.57;;
45762;SDS011;37512;52.408;13.356;2023-11-21T19:37:50;13.43;;;7.68;;
45762;SDS011;37512;52.408;13.356;2023-11-21T19:41:54;11.93;;;7.45;;
45762;SDS011;37512;52.408;13.356;2023-11-21T19:45:59;12.45;;;8.25;;
45762;SDS011;37512;52.408;13.356;2023-11-21T19:50:05;11.30;;;7.50;;
45762;SDS011;37512;52.408;13.356;2023-11-21T19:54:13;11.00;;;6.72;;
45762;SDS011;37512;52.408;13.356;2023-11-21T19:58:14;13.93;;;7.57;;
45762;SDS011;37512;52.408;13.356;2023-11-21T20:02:18;12.25;;;7.55;;
45762;SDS011;37512;52.408;13.356;2023-11-21T20:06:20;18.08;;;7.97;;
45762;SDS011;37512;52.408;13.356;2023-11-21T20:10:24;11.63;;;7.00;;
45762;SDS011;37512;52.408;13.356;2023-11-21T20:14:26;15.13;;;7.78;;
45762;SDS011;37512;52.408;13.356;2023-11-21T20:18:30;12.88;;;7.70;;
45762;SDS011;37512;52.408;13.356;2023-11-21T20:22:32;12.25;;;7.90;;
45762;SDS011;37512;52.408;13.356;2023-11-21T20:26:37;15.43;;;7.45;;
45762;SDS011;37512;52.408;13.356;2023-11-21T20:30:42;10.25;;;6.50;;
45762;SDS011;37512;52.408;13.356;2023-11-21T20:34:45;11.45;;;6.50;;
45762;SDS011;37512;52.408;13.356;2023-11-21T20:38:47;14.50;;;7.78;;
45762;SDS011;37512;52.408;13.356;2023-11-21T20:42:52;14.82;;;8.02;;
45762;SDS011;37512;52.408;13.356;2023-11-21T20:47:01;14.07;;;8.20;;
45762;SDS011;37512;52.408;13.356;2023-11-21T20:51:12;14.35;;;7.88;;
45762;SDS011;37512;52.408;13.356;2023-11-21T20:55:30;17.58;;;7.32;;
45762;SDS011;37512;52.408;13.356;2023-11-21T20:59:32;13.40;;;8.27;;
45762;SDS011;37512;52.408;13.356;2023-11-21T21:03:34;14.68;;;7.63;;
45762;SDS011;37512;52.408;13.356;2023-11-21T21:07:36;12.38;;;7.07;;
45762;SDS011;37512;52.408;13.356;2023-11-21T21:11:42;12.68;;;7.80;;
45762;SDS011;37512;52.408;13.356;2023-11-21T21:15:44;9.85;;;7.22;;
45762;SDS011;37512;52.408;13.356;2023-11-21T21:19:56;12.25;;;7.05;;
45762;SDS011;37512;52.408;13.356;2023-11-21T21:24:05;12.07;;;6.63;;
45762;SDS011;37512;52.408;13.356;2023-11-21T21:28:07;10.13;;;7.20;;
45762;SDS011;37512;52.408;13.356;2023-11-21T21:32:10;11.20;;;7.03;;
45762;SDS011;37512;52.408;13.356;2023-11-21T21:36:15;13.32;;;7.53;;
45762;SDS011;37512;52.408;13.356;2023-11-21T21:40:21;10.73;;;6.18;;
45762;SDS011;37512;52.408;13.356;2023-11-21T21:44:28;13.70;;;7.03;;
45762;SDS011;37512;52.408;13.356;2023-11-21T21:48:30;11.27;;;7.32;;
45762;SDS011;37512;52.408;13.356;2023-11-21T21:52:33;14.13;;;6.85;;
45762;SDS011;37512;52.408;13.356;2023-11-21T21:56:35;13.98;;;6.47;;
45762;SDS011;37512;52.408;13.356;2023-11-21T22:00:40;10.20;;;6.63;;
45762;SDS011;37512;52.408;13.356;2023-11-21T22:04:41;8.65;;;5.95;;
45762;SDS011;37512;52.408;13.356;2023-11-21T22:08:44;12.50;;;6.88;;
45762;SDS011;37512;52.408;13.356;2023-11-21T22:12:46;8.85;;;5.88;;
45762;SDS011;37512;52.408;13.356;2023-11-21T22:16:48;8.80;;;5.60;;
45762;SDS011;37512;52.408;13.356;2023-11-21T22:20:50;9.60;;;5.68;;
45762;SDS011;37512;52.408;13.356;2023-11-21T22:24:52;11.55;;;6.68;;
45762;SDS011;37512;52.408;13.356;2023-11-21T22:28:55;17.08;;;6.25;;
45762;SDS011;37512;52.408;13.356;2023-11-21T22:32:57;11.50;;;6.53;;
45762;SDS011;37512;52.408;13.356;2023-11-21T22:37:00;10.45;;;6.15;;
45762;SDS011;37512;52.408;13.356;2023-11-21T22:41:04;10.13;;;5.68;;
45762;SDS011;37512;52.408;13.356;2023-11-21T22:45:09;10.25;;;6.47;;
45762;SDS011;37512;52.408;13.356;2023-11-21T22:49:11;12.65;;;6.20;;
45762;SDS011;37512;52.408;13.356;2023-11-21T22:53:14;12.82;;;6.65;;
45762;SDS011;37512;52.408;13.356;2023-11-21T22:57:16;11.20;;;6.25;;
45762;SDS011;37512;52.408;13.356;2023-11-21T23:01:19;12.75;;;6.00;;
45762;SDS011;37512;52.408;13.356;2023-11-21T23:05:21;11.68;;;6.78;;
45762;SDS011;37512;52.408;13.356;2023-11-21T23:09:23;11.10;;;6.50;;
45762;SDS011;37512;52.408;13.356;2023-11-21T23:13:24;11.25;;;5.85;;
45762;SDS011;37512;52.408;13.356;2023-11-21T23:17:26;16.92;;;6.55;;
45762;SDS011;37512;52.408;13.356;2023-11-21T23:21:31;10.27;;;6.43;;
45762;SDS011;37512;52.408;13.356;2023-11-21T23:26:00;11.88;;;6.47;;
45762;SDS011;37512;52.408;13.356;2023-11-21T23:30:03;8.93;;;5.75;;
45762;SDS011;37512;52.408;13.356;2023-11-21T23:34:05;9.70;;;6.10;;
45762;SDS011;37512;52.408;13.356;2023-11-21T23:38:12;13.88;;;6.97;;
45762;SDS011;37512;52.408;13.356;2023-11-21T23:42:16;10.18;;;5.50;;
45762;SDS011;37512;52.408;13.356;2023-11-21T23:46:19;10.13;;;5.53;;
45762;SDS011;37512;52.408;13.356;2023-11-21T23:50:24;10.55;;;5.97;;
45762;SDS011;37512;52.408;13.356;2023-11-21T23:54:27;10.23;;;6.00;;
45762;SDS011;37512;52.408;13.356;2023-11-21T23:58:28;11.57;;;5.85;;
